Time;durP1;ratioP1;P1;durP2;ratioP2;P2;SDS_P1;SDS_P2;PMS_P1;PMS_P2;Temp;Humidity;BMP_temperature;BMP_pressure;BME280_temperature;BME280_humidity;BME280_pressure;Samples;Min_cycle;Max_cycle;Signal;HPM_P1;HPM_P2
2023/02/03 00:01:48;;;;;;;18.55;3.17;;;0.90;99.90;;;-0.91;100.00;101447.63;4964432;28;20034;-78
2023/02/03 00:04:14;;;;;;;12.02;3.50;;;0.90;99.90;;;-0.91;100.00;101426.09;4958973;28;20040;-78
2023/02/03 00:06:41;;;;;;;9.88;3.08;;;0.90;99.90;;;-0.84;100.00;101433.97;4948562;28;21229;-77
2023/02/03 00:09:07;;;;;;;15.65;2.88;;;0.90;99.90;;;-0.77;100.00;101445.22;4938555;28;20041;-78
2023/02/03 00:11:33;;;;;;;19.77;3.22;;;1.00;99.90;;;-0.70;100.00;101467.72;4950267;28;20097;-78
2023/02/03 00:13:58;;;;;;;14.80;3.40;;;1.00;99.90;;;-0.64;100.00;101460.03;4947417;28;20244;-78
2023/02/03 00:16:24;;;;;;;13.32;3.85;;;1.00;99.90;;;-0.59;100.00;101441.13;4956084;28;20051;-78
2023/02/03 00:18:50;;;;;;;16.60;3.30;;;1.10;99.90;;;-0.63;100.00;101427.28;4964097;28;20038;-78
2023/02/03 00:21:16;;;;;;;9.70;3.53;;;1.10;99.90;;;-0.64;100.00;101418.66;4955855;28;20031;-79
2023/02/03 00:23:42;;;;;;;9.52;3.28;;;1.10;99.90;;;-0.65;100.00;101403.09;4949528;28;20039;-78
2023/02/03 00:26:16;;;;;;;14.48;3.40;;;1.10;99.90;;;-0.60;100.00;101410.91;4963706;28;20532;-78
2023/02/03 00:28:43;;;;;;;10.77;3.00;;;1.10;99.90;;;-0.56;100.00;101412.69;4979930;28;20050;-78
2023/02/03 00:31:22;;;;;;;19.33;3.70;;;1.20;99.90;;;-0.55;100.00;101399.75;4962696;28;20105;-78
2023/02/03 00:33:56;;;;;;;15.43;3.30;;;1.20;99.90;;;-0.51;100.00;101396.34;4937706;28;20097;-78
2023/02/03 00:36:24;;;;;;;13.52;3.15;;;1.20;99.90;;;-0.53;100.00;101379.97;4978867;28;20073;-78
2023/02/03 00:38:50;;;;;;;20.13;3.20;;;1.20;99.90;;;-0.48;100.00;101369.66;4978483;28;20039;-78
2023/02/03 00:41:18;;;;;;;13.20;2.90;;;1.20;99.90;;;-0.46;100.00;101366.22;4977087;28;20098;-77
2023/02/03 00:43:44;;;;;;;13.65;2.67;;;2.40;99.90;;;-0.40;100.00;101351.63;4947805;28;20050;-78
2023/02/03 00:46:09;;;;;;;12.75;3.10;;;1.40;99.90;;;-0.34;100.00;101364.63;4946639;28;20101;-78
2023/02/03 00:48:38;;;;;;;10.98;2.53;;;1.40;99.90;;;-0.29;100.00;101362.91;4946217;28;20035;-78
2023/02/03 00:51:04;;;;;;;14.10;2.75;;;1.40;99.90;;;-0.22;100.00;101356.94;4964536;28;20051;-78
2023/02/03 00:53:31;;;;;;;11.35;2.17;;;1.40;99.90;;;-0.16;100.00;101353.53;4943334;28;20039;-78
2023/02/03 00:55:56;;;;;;;11.35;2.20;;;1.50;99.90;;;-0.11;100.00;101351.81;4938773;28;20046;-78
2023/02/03 00:58:22;;;;;;;13.88;2.53;;;1.50;99.90;;;-0.05;100.00;101355.31;4962549;28;20038;-78
2023/02/03 01:00:48;;;;;;;11.55;2.63;;;1.60;99.90;;;-0.04;100.00;101346.72;4940127;28;20085;-78
2023/02/03 01:03:15;;;;;;;12.07;2.40;;;1.60;99.90;;;0.01;100.00;101343.28;4948253;28;20039;-78
2023/02/03 01:05:43;;;;;;;11.48;2.60;;;1.70;99.90;;;0.04;100.00;101340.72;4932159;28;20072;-78
2023/02/03 01:08:09;;;;;;;15.88;2.35;;;1.70;99.90;;;0.08;100.00;101338.16;4939951;28;20044;-80
2023/02/03 01:10:38;;;;;;;7.53;1.73;;;1.70;99.90;;;0.14;100.00;101345.97;4948644;28;20394;-77
2023/02/03 01:13:03;;;;;;;11.57;2.00;;;1.80;99.90;;;0.19;100.00;101335.63;4931715;28;20026;-78
2023/02/03 01:15:29;;;;;;;11.95;2.50;;;1.80;99.90;;;0.27;100.00;101320.16;4969774;28;20047;-77
2023/02/03 01:18:02;;;;;;;13.90;2.20;;;1.90;99.90;;;0.31;100.00;101317.56;4954805;28;20038;-79
2023/02/03 01:20:28;;;;;;;12.75;1.85;;;1.90;99.90;;;0.39;100.00;101317.63;4948894;28;20121;-78
2023/02/03 01:22:54;;;;;;;14.05;2.10;;;2.00;99.90;;;0.39;100.00;101310.72;4942123;28;20137;-78
2023/02/03 01:25:20;;;;;;;17.10;2.47;;;2.00;99.90;;;0.40;100.00;101301.19;4936759;28;20035;-79
2023/02/03 01:27:48;;;;;;;11.52;2.60;;;2.10;99.90;;;0.43;100.00;101293.44;4961418;28;20762;-78
2023/02/03 01:30:14;;;;;;;14.05;1.88;;;2.00;99.90;;;0.47;100.00;101282.22;4941559;28;20085;-78
2023/02/03 01:32:40;;;;;;;12.77;2.47;;;2.10;99.90;;;0.55;100.00;101272.75;4965346;28;20038;-78
2023/02/03 01:35:06;;;;;;;10.68;2.08;;;2.20;99.90;;;0.59;100.00;101274.50;4951617;28;20027;-78
2023/02/03 01:37:32;;;;;;;14.57;2.40;;;2.20;99.90;;;0.60;100.00;101270.19;4962355;28;20039;-77
2023/02/03 01:39:58;;;;;;;11.50;2.15;;;2.20;99.90;;;0.63;100.00;101257.25;4938969;28;20054;-78
2023/02/03 01:42:23;;;;;;;14.35;2.40;;;2.20;99.90;;;0.63;100.00;101252.06;4952300;28;20050;-77
2023/02/03 01:44:50;;;;;;;24.38;2.63;;;2.20;99.90;;;0.61;100.00;101257.22;4953080;28;20035;-78
2023/02/03 01:47:40;;;;;;;15.13;2.50;;;2.30;99.90;;;0.59;100.00;101239.94;4947095;28;20103;-77
2023/02/03 01:50:21;;;;;;;17.70;3.30;;;2.30;99.90;;;0.61;100.00;101236.50;4954845;28;20069;-77
2023/02/03 01:52:56;;;;;;;19.27;2.88;;;2.30;99.90;;;0.59;100.00;101237.38;4956871;28;20046;-78
2023/02/03 01:55:52;;;;;;;15.23;2.70;;;2.20;99.90;;;0.63;100.00;101220.06;4945433;28;20050;-78
2023/02/03 01:58:31;;;;;;;17.67;2.72;;;2.30;99.90;;;0.63;100.00;101205.41;4949329;28;20045;-77
2023/02/03 02:00:57;;;;;;;15.73;2.92;;;2.30;99.90;;;0.64;100.00;101201.09;4954902;28;20035;-78
2023/02/03 02:03:31;;;;;;;16.20;2.85;;;2.30;99.90;;;0.67;100.00;101183.81;4930224;28;20037;-78
2023/02/03 02:06:09;;;;;;;15.52;2.90;;;2.30;99.90;;;0.71;100.00;101182.06;4954893;28;20039;-77
2023/02/03 02:08:39;;;;;;;11.43;2.80;;;2.30;99.90;;;0.71;100.00;101182.06;4956695;28;20054;-78
2023/02/03 02:11:06;;;;;;;11.68;3.15;;;2.30;99.90;;;0.69;100.00;101184.69;4947883;28;20031;-78
2023/02/03 02:13:34;;;;;;;20.90;3.15;;;2.40;99.90;;;0.68;100.00;101182.94;4944789;28;20196;-78
2023/02/03 02:16:15;;;;;;;12.80;3.38;;;2.40;99.90;;;0.68;100.00;101166.53;4970414;28;20037;-78
2023/02/03 02:18:51;;;;;;;21.10;3.95;;;2.30;99.90;;;0.66;100.00;101163.94;4970777;28;20179;-79
2023/02/03 02:21:35;;;;;;;16.60;3.60;;;2.30;99.90;;;0.63;100.00;101148.41;4945176;28;20517;-79
2023/02/03 02:24:16;;;;;;;19.35;4.10;;;2.30;99.90;;;0.59;100.00;101137.16;4929335;28;20169;-79
2023/02/03 02:27:03;;;;;;;18.45;3.83;;;2.40;99.90;;;0.60;100.00;101117.28;4946225;28;20038;-79
2023/02/03 02:30:08;;;;;;;24.00;4.63;;;2.30;99.90;;;0.59;100.00;101111.22;4964140;28;20079;-79
2023/02/03 02:32:50;;;;;;;13.32;3.60;;;2.40;99.90;;;0.64;100.00;101120.75;4972749;28;20038;-80
2023/02/03 02:35:38;;;;;;;17.33;4.43;;;2.40;99.90;;;0.64;100.00;101118.16;4958018;28;20098;-80
2023/02/03 02:38:24;;;;;;;16.60;3.78;;;2.40;99.90;;;0.65;100.00;101094.84;4941990;28;20046;-80
2023/02/03 02:41:16;;;;;;;17.17;4.10;;;2.40;99.90;;;0.64;100.00;101092.22;4939796;28;21355;-80
2023/02/03 02:44:05;;;;;;;19.35;4.55;;;2.40;99.90;;;0.66;100.00;101077.53;4919412;28;20042;-80
2023/02/03 02:46:41;;;;;;;25.35;5.05;;;2.30;99.90;;;0.61;100.00;101057.69;4971859;28;20042;-80
2023/02/03 02:49:32;;;;;;;31.77;4.93;;;2.30;99.90;;;0.65;100.00;101047.28;4959321;28;20062;-80
2023/02/03 02:52:07;;;;;;;11.55;4.35;;;2.30;99.90;;;0.65;100.00;101036.94;4953186;28;20038;-80
2023/02/03 02:54:38;;;;;;;17.80;5.00;;;2.30;99.90;;;0.64;100.00;101030.88;4915033;28;20061;-79
2023/02/03 02:57:11;;;;;;;9.98;3.75;;;2.30;99.90;;;0.68;100.00;101018.81;4919389;28;20054;-79
2023/02/03 02:59:37;;;;;;;13.38;3.45;;;2.30;99.90;;;0.67;100.00;101009.28;4930975;28;20828;-80
2023/02/03 03:02:03;;;;;;;8.68;3.13;;;2.30;99.90;;;0.65;100.00;101008.41;4922871;28;20161;-79
2023/02/03 03:04:32;;;;;;;9.48;2.95;;;2.30;99.90;;;0.63;100.00;101002.38;4916264;28;20574;-79
2023/02/03 03:07:05;;;;;;;8.82;2.80;;;2.30;99.90;;;0.61;100.00;100990.28;4936466;28;20074;-80
2023/02/03 03:09:49;;;;;;;9.48;2.95;;;2.40;99.90;;;0.60;100.00;100988.59;4915112;28;20065;-79
2023/02/03 03:12:33;;;;;;;15.85;3.03;;;;;;;0.62;100.00;100983.38;4879317;28;20062;-80
2023/02/03 03:15:17;;;;;;;8.07;3.00;;;2.30;99.90;;;0.60;100.00;100977.34;4926074;28;20035;-80
2023/02/03 03:18:18;;;;;;;15.20;3.47;;;2.30;99.90;;;0.57;100.00;100952.28;4931527;28;20054;-79
2023/02/03 03:20:49;;;;;;;12.50;3.45;;;2.30;99.90;;;0.53;100.00;100947.13;4946346;28;20034;-79
2023/02/03 03:23:26;;;;;;;9.63;3.17;;;2.30;99.90;;;0.55;100.00;100948.84;4916147;28;20034;-79
2023/02/03 03:26:07;;;;;;;11.20;4.20;;;2.30;99.90;;;0.50;100.00;100942.81;4911405;28;20101;-79
2023/02/03 03:28:43;;;;;;;13.57;4.82;;;2.30;99.90;;;0.52;100.00;100938.50;4966690;28;20030;-78
2023/02/03 03:31:09;;;;;;;13.95;4.32;;;2.30;99.90;;;0.44;100.00;100929.88;4906665;28;20042;-79
2023/02/03 03:33:35;;;;;;;14.55;4.90;;;2.30;99.90;;;0.41;100.00;100916.91;4909740;28;20030;-79
2023/02/03 03:36:25;;;;;;;11.10;4.28;;;2.20;99.90;;;0.41;100.00;100906.53;4940989;28;20050;-79
2023/02/03 03:39:14;;;;;;;12.90;4.30;;;2.20;99.90;;;0.38;100.00;100888.44;4943234;28;20541;-79
2023/02/03 03:41:52;;;;;;;11.95;4.32;;;2.20;99.90;;;0.40;100.00;100890.13;4941358;28;20035;-79
2023/02/03 03:44:25;;;;;;;12.68;3.95;;;2.20;99.90;;;0.44;100.00;100882.38;4944589;28;20058;-79
2023/02/03 03:47:05;;;;;;;12.63;3.92;;;2.20;99.90;;;0.53;100.00;100884.94;4937018;28;20038;-79
2023/02/03 03:49:34;;;;;;;11.27;4.05;;;2.20;99.90;;;0.45;100.00;100865.94;4953443;28;20046;-79
2023/02/03 03:52:14;;;;;;;9.02;4.00;;;2.20;99.90;;;0.44;100.00;100857.31;4927079;28;20411;-79
2023/02/03 03:54:41;;;;;;;9.65;4.35;;;2.20;99.90;;;0.50;100.00;100852.13;4961659;28;20121;-78
2023/02/03 03:57:27;;;;;;;7.78;3.95;;;2.20;99.90;;;0.55;100.00;100844.34;4938806;28;20030;-79
2023/02/03 03:59:53;;;;;;;7.45;3.58;;;2.30;99.90;;;0.63;100.00;100841.69;4945635;28;20034;-79
2023/02/03 04:02:21;;;;;;;6.28;3.33;;;2.30;99.90;;;0.67;100.00;100827.88;4942683;28;20068;-79
2023/02/03 04:04:48;;;;;;;3.95;2.38;;;2.30;99.90;;;0.57;100.00;100809.78;4930582;28;20038;-79
2023/02/03 04:07:19;;;;;;;6.53;2.95;;;2.30;99.90;;;0.68;100.00;100814.06;4930710;28;20110;-78
2023/02/03 04:09:45;;;;;;;8.85;3.08;;;2.40;99.90;;;0.71;100.00;100804.50;4947901;28;20057;-79
2023/02/03 04:12:23;;;;;;;10.32;3.03;;;2.40;99.90;;;0.73;100.00;100799.34;4925499;28;20039;-79
2023/02/03 04:14:49;;;;;;;6.60;2.97;;;2.40;99.90;;;0.76;100.00;100792.41;4961449;28;20514;-79
2023/02/03 04:17:15;;;;;;;5.35;2.58;;;2.40;99.90;;;0.73;100.00;100781.19;4917417;28;20050;-79
2023/02/03 04:19:41;;;;;;;7.30;3.10;;;2.40;99.90;;;0.76;100.00;100776.00;4953848;28;20034;-79
2023/02/03 04:22:06;;;;;;;4.50;2.88;;;2.40;99.90;;;0.80;100.00;100775.13;4939506;28;20121;-78
2023/02/03 04:24:32;;;;;;;6.20;2.75;;;1.90;99.90;;;0.80;100.00;100764.75;4935847;28;20031;-79
2023/02/03 04:27:01;;;;;;;4.45;2.60;;;2.50;99.90;;;0.79;100.00;100750.91;4948745;28;20065;-80
2023/02/03 04:29:29;;;;;;;5.72;2.42;;;2.50;99.90;;;0.80;100.00;100742.28;4948864;28;20085;-78
2023/02/03 04:31:55;;;;;;;4.88;2.90;;;2.50;99.90;;;0.83;100.00;100741.38;4916808;28;20738;-79
2023/02/03 04:34:20;;;;;;;4.80;2.88;;;2.50;99.90;;;0.86;100.00;100736.19;4939215;28;20122;-79
2023/02/03 04:36:46;;;;;;;4.25;2.80;;;2.50;99.90;;;0.88;100.00;100736.19;4946203;28;20493;-79
2023/02/03 04:39:12;;;;;;;4.00;2.90;;;2.60;99.90;;;0.90;100.00;100721.47;4963466;28;20211;-79
2023/02/03 04:41:41;;;;;;;4.70;2.80;;;2.60;99.90;;;0.90;100.00;100717.13;4949102;28;20038;-79
2023/02/03 04:44:07;;;;;;;4.78;2.72;;;2.60;99.90;;;0.94;100.00;100707.63;4931202;28;20038;-79
2023/02/03 04:46:32;;;;;;;6.93;3.47;;;2.60;99.90;;;0.97;100.00;100700.69;4914423;28;20113;-79
2023/02/03 04:48:58;;;;;;;3.90;3.20;;;2.60;99.90;;;1.02;100.00;100695.47;4942010;28;20113;-79
2023/02/03 04:51:24;;;;;;;6.03;3.85;;;2.70;99.90;;;1.02;100.00;100696.31;4939279;28;20098;-78
2023/02/03 04:53:50;;;;;;;5.72;3.58;;;2.70;99.90;;;1.05;100.00;100686.78;4891196;28;20121;-80
2023/02/03 04:56:16;;;;;;;5.15;3.70;;;;;;;1.08;100.00;100678.97;4960150;28;20442;-79
2023/02/03 04:58:42;;;;;;;8.38;4.38;;;2.70;99.90;;;1.08;100.00;100664.31;4948169;28;20425;-79
2023/02/03 05:01:09;;;;;;;6.57;4.00;;;2.80;99.90;;;1.04;100.00;100652.22;4949638;28;20050;-79
2023/02/03 05:03:35;;;;;;;7.15;4.38;;;2.80;99.90;;;1.10;100.00;100622.78;4899978;28;20042;-79
2023/02/03 05:06:02;;;;;;;7.20;4.68;;;2.80;99.90;;;1.17;100.00;100630.50;4930105;28;20045;-80
2023/02/03 05:08:29;;;;;;;11.63;4.43;;;2.80;99.90;;;1.17;100.00;100619.25;4941046;28;20050;-80
2023/02/03 05:10:55;;;;;;;9.98;4.93;;;2.80;99.90;;;1.13;100.00;100599.41;4942406;28;20039;-79
2023/02/03 05:13:20;;;;;;;9.70;5.13;;;2.90;99.90;;;1.16;100.00;100586.41;4918959;28;20126;-79
2023/02/03 05:15:53;;;;;;;10.48;5.55;;;2.90;99.90;;;1.19;100.00;100578.63;4929185;28;20069;-80
2023/02/03 05:18:19;;;;;;;9.43;5.60;;;2.90;99.90;;;1.23;100.00;100570.78;4946482;28;20031;-80
2023/02/03 05:20:45;;;;;;;9.82;5.45;;;2.90;99.90;;;1.27;100.00;100565.53;4941113;28;20081;-80
2023/02/03 05:23:11;;;;;;;8.55;5.57;;;3.00;99.90;;;1.32;100.00;100572.41;4940991;28;20050;-79
2023/02/03 05:25:36;;;;;;;10.82;6.68;;;3.00;99.90;;;1.34;100.00;100554.22;4946409;28;20149;-80
2023/02/03 05:28:03;;;;;;;10.52;6.13;;;3.00;99.90;;;1.41;100.00;100550.69;4935277;28;20034;-79
2023/02/03 05:30:31;;;;;;;11.82;5.82;;;3.10;99.90;;;1.44;100.00;100542.84;4916796;28;20112;-80
2023/02/03 05:32:57;;;;;;;10.38;6.25;;;3.10;99.90;;;1.50;100.00;100528.97;4930858;28;20061;-80
2023/02/03 05:35:22;;;;;;;12.95;7.38;;;3.20;99.90;;;1.57;100.00;100536.63;4942969;28;20088;-79
2023/02/03 05:37:48;;;;;;;13.55;7.40;;;3.20;99.90;;;1.62;100.00;100527.06;4918491;28;20114;-80
2023/02/03 05:43:08;;;;;;;16.63;8.00;;;3.30;99.90;;;1.73;100.00;100503.56;4961982;28;20067;-81
2023/02/03 05:45:34;;;;;;;16.33;7.82;;;3.40;99.90;;;1.79;100.00;100500.88;4936268;28;20078;-81
2023/02/03 05:48:09;;;;;;;15.77;7.55;;;3.40;99.90;;;1.87;100.00;100500.75;4891940;28;20054;-81
2023/02/03 05:50:36;;;;;;;23.73;10.10;;;3.50;99.90;;;1.92;100.00;100503.28;4923425;28;20043;-81
2023/02/03 05:53:05;;;;;;;16.50;9.10;;;3.60;99.90;;;1.95;100.00;100488.53;4956187;28;20078;-81
2023/02/03 05:55:37;;;;;;;20.85;10.07;;;3.60;99.90;;;2.04;100.00;100483.19;4937525;28;20045;-81
2023/02/03 05:58:04;;;;;;;25.58;10.98;;;3.70;99.90;;;2.16;100.00;100481.28;4933653;28;20031;-81
2023/02/03 06:00:30;;;;;;;26.33;11.85;;;3.80;99.90;;;2.27;100.00;100466.41;4954583;28;20045;-81
2023/02/03 06:03:01;;;;;;;30.08;12.80;;;3.80;99.90;;;2.34;100.00;100451.56;4977530;28;20562;-81
2023/02/03 06:05:28;;;;;;;36.78;14.23;;;4.00;99.90;;;2.44;100.00;100458.28;4948210;28;20093;-81
2023/02/03 06:07:54;;;;;;;36.05;15.57;;;4.00;99.90;;;2.50;100.00;100453.00;4965250;28;20042;-81
2023/02/03 06:10:21;;;;;;;56.35;20.25;;;4.10;99.90;;;2.62;100.00;100446.72;4918958;28;20043;-81
2023/02/03 06:12:48;;;;;;;49.38;17.95;;;4.20;99.90;;;2.69;100.00;100445.72;4902090;28;20058;-82
2023/02/03 06:15:21;;;;;;;60.30;20.00;;;4.30;99.90;;;2.77;100.00;100435.19;4939008;28;20766;-81
2023/02/03 06:17:50;;;;;;;54.85;19.48;;;4.40;99.90;;;2.87;100.00;100434.97;4872793;28;20054;-82
2023/02/03 06:20:25;;;;;;;65.95;21.77;;;4.40;99.90;;;2.94;100.00;100425.31;4927003;28;20577;-81
2023/02/03 06:22:51;;;;;;;60.07;21.33;;;4.50;99.90;;;3.00;100.00;100411.31;4927292;28;20043;-82
2023/02/03 06:25:17;;;;;;;51.38;18.67;;;4.60;99.90;;;3.08;100.00;100397.25;4939656;28;20042;-82
2023/02/03 06:27:43;;;;;;;46.53;18.05;;;4.60;99.90;;;3.15;100.00;100397.13;4940605;28;20046;-82
2023/02/03 06:30:10;;;;;;;41.13;17.05;;;4.70;99.90;;;3.20;100.00;100390.09;4911990;28;20440;-82
2023/02/03 06:32:41;;;;;;;43.28;17.80;;;4.80;99.90;;;3.27;100.00;100382.09;4939073;28;20474;-82
2023/02/03 06:35:07;;;;;;;53.97;19.23;;;4.80;99.90;;;3.35;100.00;100381.06;4923245;28;20039;-82
2023/02/03 06:37:34;;;;;;;45.53;18.23;;;4.90;99.90;;;3.40;100.00;100377.50;4880474;28;20046;-82
2023/02/03 06:40:01;;;;;;;50.35;18.42;;;5.00;99.90;;;3.46;100.00;100377.34;4919169;28;20137;-82
2023/02/03 06:42:34;;;;;;;58.08;20.48;;;5.00;99.90;;;3.53;100.00;100369.41;4934655;28;20045;-82
2023/02/03 06:45:00;;;;;;;51.90;20.00;;;5.10;99.90;;;3.60;100.00;100357.94;4924097;28;20034;-83
2023/02/03 06:47:26;;;;;;;47.95;19.77;;;5.20;99.90;;;3.67;100.00;100359.50;4895468;28;20573;-82
2023/02/03 06:49:51;;;;;;;57.53;20.55;;;5.20;99.90;;;3.73;100.00;100348.09;4941238;28;20030;-83
2023/02/03 06:52:18;;;;;;;47.20;19.00;;;5.30;99.90;;;3.79;100.00;100347.94;4935673;28;20031;-82
2023/02/03 06:54:44;;;;;;;58.45;20.63;;;5.30;99.90;;;3.82;100.00;100338.31;4942836;28;20104;-82
2023/02/03 06:57:12;;;;;;;51.33;20.23;;;5.40;99.90;;;3.90;100.00;100328.53;4866753;28;20046;-83
2023/02/03 06:59:38;;;;;;;62.58;20.23;;;5.50;99.90;;;3.98;100.00;100327.50;4908081;28;20035;-83
2023/02/03 07:02:04;;;;;;;52.92;18.58;;;5.50;99.90;;;4.01;100.00;100327.41;4935921;28;20096;-82
2023/02/03 07:04:30;;;;;;;54.55;18.63;;;5.60;99.90;;;4.08;100.00;100322.03;4925017;28;20038;-84
2023/02/03 07:06:56;;;;;;;39.80;15.95;;;5.60;99.90;;;4.15;100.00;100316.63;4924056;28;20035;-83
2023/02/03 07:09:30;;;;;;;38.55;14.70;;;5.70;99.90;;;4.25;100.00;100313.72;4938161;28;20113;-83
2023/02/03 07:11:55;;;;;;;38.63;14.65;;;5.80;99.90;;;4.35;100.00;100305.69;4917837;28;20034;-84
2023/02/03 07:14:21;;;;;;;36.58;14.27;;;5.80;99.90;;;4.41;100.00;100298.53;4894298;28;20516;-83
2023/02/03 07:16:47;;;;;;;27.98;12.07;;;5.90;99.90;;;4.50;100.00;100289.59;4890431;28;20094;-84
2023/02/03 07:19:13;;;;;;;23.75;11.02;;;6.00;99.90;;;4.58;100.00;100291.97;4902271;28;20117;-84
2023/02/03 07:21:41;;;;;;;23.60;10.55;;;6.10;99.90;;;4.69;100.00;100301.22;4928412;28;20023;-85
2023/02/03 07:24:10;;;;;;;27.77;11.20;;;;;;;4.74;100.00;100277.59;4882221;28;20603;-85
2023/02/03 07:26:37;;;;;;;21.75;10.00;;;6.20;99.90;;;4.82;100.00;100274.78;4920791;28;20039;-84
2023/02/03 07:29:04;;;;;;;18.92;8.25;;;6.30;99.90;;;4.89;100.00;100276.28;4923087;28;20426;-83
2023/02/03 07:31:30;;;;;;;19.63;7.95;;;6.40;99.90;;;4.92;100.00;100258.78;4941783;28;20053;-84
2023/02/03 07:34:00;;;;;;;21.85;7.93;;;6.40;99.90;;;5.00;100.00;100253.31;4920735;28;20040;-84
2023/02/03 07:36:27;;;;;;;18.75;7.40;;;;;;;5.05;100.00;100247.97;4908688;28;20058;-85
2023/02/03 07:38:54;;;;;;;12.90;4.72;;;6.50;99.90;;;5.07;100.00;100239.16;4906792;28;20050;-84
2023/02/03 07:41:20;;;;;;;12.30;4.05;;;6.60;99.90;;;5.16;100.00;100239.78;4929782;28;20641;-85
2023/02/03 07:43:54;;;;;;;8.02;3.30;;;;;;;5.20;100.00;100234.41;4896814;28;20027;-84
2023/02/03 07:46:20;;;;;;;8.75;2.65;;;;;;;5.25;100.00;100223.84;4926315;28;20035;-84
2023/02/03 07:48:45;;;;;;;5.75;2.28;;;6.80;99.90;;;5.32;100.00;100220.13;4936536;28;20113;-85
2023/02/03 07:51:11;;;;;;;2.42;1.75;;;6.80;99.90;;;5.35;100.00;100210.41;4921371;28;20110;-85
2023/02/03 07:53:37;;;;;;;3.33;1.50;;;6.90;99.90;;;5.41;100.00;100208.53;4974724;28;20039;-86
2023/02/03 07:56:12;;;;;;;2.33;1.30;;;6.90;99.90;;;5.46;100.00;100204.84;4938937;28;20042;-88
2023/02/03 07:58:38;;;;;;;1.85;0.90;;;7.00;99.90;;;5.50;100.00;100189.94;4913756;28;20535;-87
2023/02/03 08:01:15;;;;;;;4.20;0.73;;;7.00;99.90;;;5.54;100.00;100192.38;4949026;28;20037;-85
2023/02/03 08:03:41;;;;;;;1.00;0.77;;;;;;;5.58;100.00;100192.28;4941323;28;20158;-85
2023/02/03 08:06:08;;;;;;;1.08;0.88;;;7.30;99.90;;;5.58;100.00;100181.84;4906986;28;20045;-87
2023/02/03 08:08:42;;;;;;;1.15;0.70;;;7.10;99.90;;;5.63;100.00;100183.38;4920984;28;20046;-86
2023/02/03 08:11:11;;;;;;;1.73;0.82;;;7.10;99.90;;;5.67;100.00;100171.06;4947413;28;20066;-86
2023/02/03 08:13:44;;;;;;;3.03;0.85;;;7.20;99.90;;;5.69;100.00;100179.69;4893361;28;20035;-85
2023/02/03 08:16:10;;;;;;;1.15;0.90;;;7.20;99.90;;;5.73;100.00;100170.84;4908388;28;20048;-85
2023/02/03 08:18:36;;;;;;;1.10;0.57;;;;;;;5.76;100.00;100168.13;4896409;28;20053;-87
2023/02/03 08:21:03;;;;;;;1.02;0.63;;;7.30;99.90;;;5.79;100.00;100170.63;4908051;28;20038;-84
2023/02/03 08:23:39;;;;;;;1.23;0.80;;;7.20;99.90;;;5.83;100.00;100163.53;4921596;28;20045;-86
2023/02/03 08:26:05;;;;;;;3.25;0.90;;;;;;;5.84;100.00;100153.03;4891650;28;20042;-86
2023/02/03 08:28:31;;;;;;;2.25;0.73;;;7.40;99.90;;;5.89;100.00;100155.47;4885356;28;20043;-86
2023/02/03 08:31:11;;;;;;;1.30;0.50;;;;;;;5.93;100.00;100152.69;4921760;28;20052;-87
2023/02/03 08:33:47;;;;;;;0.85;0.52;;;;;;;5.93;100.00;100150.06;4928722;28;20046;-85
2023/02/03 08:36:13;;;;;;;2.63;0.63;;;7.40;99.90;;;5.95;100.00;100144.81;4932804;28;20046;-84
2023/02/03 08:38:40;;;;;;;0.60;0.60;;;7.50;99.90;;;6.00;100.00;100139.44;4884184;28;20046;-86
2023/02/03 08:41:16;;;;;;;0.98;0.98;;;7.50;99.90;;;6.04;100.00;100138.41;4899725;28;20031;-86
2023/02/03 08:43:44;;;;;;;0.00;0.00;;;7.50;99.90;;;6.06;100.00;100137.44;4892804;28;20057;-85
2023/02/03 08:46:16;;;;;;;0.00;0.00;;;7.50;99.90;;;6.10;100.00;100123.34;4876296;28;20042;-86
2023/02/03 08:48:41;;;;;;;1.27;0.70;;;7.60;99.90;;;6.14;100.00;100130.16;4913793;28;20088;-85
2023/02/03 08:51:23;;;;;;;0.95;0.50;;;7.60;99.90;;;6.20;100.00;100125.59;4929347;28;20034;-86
2023/02/03 08:53:49;;;;;;;4.10;0.80;;;7.60;99.90;;;6.23;100.00;100112.44;4901860;28;20034;-85
2023/02/03 08:56:14;;;;;;;1.40;0.45;;;7.70;99.90;;;6.25;100.00;100115.84;4909813;28;20053;-85
2023/02/03 08:58:40;;;;;;;1.65;0.52;;;7.70;99.90;;;6.26;100.00;100122.75;4918387;28;20121;-85
2023/02/03 09:01:14;;;;;;;3.50;0.68;;;;;;;6.28;100.00;100120.94;4904152;28;20030;-85
2023/02/03 09:03:43;;;;;;;1.17;0.40;;;7.70;99.90;;;6.30;100.00;100122.56;4931793;28;20046;-84
2023/02/03 09:06:15;;;;;;;2.17;0.47;;;7.80;99.90;;;6.30;100.00;100122.56;4929052;28;20046;-86
2023/02/03 09:08:45;;;;;;;2.88;0.77;;;7.80;99.90;;;6.37;100.00;100115.34;4918188;28;20046;-86
2023/02/03 09:11:21;;;;;;;2.42;0.60;;;7.80;99.90;;;6.40;100.00;100122.25;4961116;28;20117;-85
2023/02/03 09:13:48;;;;;;;2.03;0.45;;;;;;;6.40;100.00;100127.47;4935324;28;20141;-86
2023/02/03 09:16:21;;;;;;;10.13;1.42;;;7.80;99.90;;;6.34;100.00;100129.41;4952157;28;20125;-85
2023/02/03 09:18:53;;;;;;;3.97;0.57;;;7.80;99.90;;;6.28;100.00;100127.00;4922935;28;20462;-85
2023/02/03 09:21:19;;;;;;;4.10;0.60;;;7.80;99.90;;;6.29;100.00;100133.97;4933877;28;20126;-84
2023/02/03 09:23:51;;;;;;;8.40;1.10;;;7.70;99.90;;;6.20;100.00;100139.56;4912576;28;20058;-83
2023/02/03 09:26:20;;;;;;;6.65;1.50;;;;;;;6.07;100.00;100169.66;4921996;28;20042;-84
2023/02/03 09:28:49;;;;;;;10.40;1.67;;;7.60;99.90;;;5.91;100.00;100170.19;4909492;28;20135;-84
2023/02/03 09:31:20;;;;;;;6.68;1.60;;;7.50;99.90;;;5.82;100.00;100180.97;4919770;28;20097;-84
2023/02/03 09:33:52;;;;;;;7.68;1.30;;;7.30;99.90;;;5.68;100.00;100146.63;4937805;28;20031;-86
2023/02/03 09:36:27;;;;;;;6.80;1.38;;;;;;;5.51;100.00;100155.09;4894409;28;20035;-87
2023/02/03 09:38:53;;;;;;;11.93;1.50;;;;;;;5.48;100.00;100165.63;4907665;28;20082;-86
2023/02/03 09:41:47;;;;;;;13.07;1.48;;;;;;;5.45;100.00;100171.81;4904939;28;20085;-86
2023/02/03 09:44:40;;;;;;;9.05;1.70;;;7.10;99.90;;;5.46;100.00;100172.66;4925744;28;20046;-85
2023/02/03 09:47:25;;;;;;;16.40;2.78;;;7.00;99.90;;;5.36;100.00;100166.91;4891703;28;20419;-85
2023/02/03 09:50:06;;;;;;;16.77;3.22;;;6.90;99.90;;;5.25;100.00;100184.69;4952418;28;20125;-86
2023/02/03 09:52:47;;;;;;;18.52;3.03;;;6.80;99.90;;;5.12;100.00;100163.38;4920488;28;20408;-85
2023/02/03 09:55:50;;;;;;;22.48;3.53;;;6.80;99.90;;;5.05;100.00;100169.66;4904570;28;20092;-86
2023/02/03 09:58:24;;;;;;;21.30;2.90;;;;;;;5.03;100.00;100184.53;4920493;28;20059;-88
2023/02/03 10:01:14;;;;;;;9.63;2.35;;;6.70;99.90;;;5.12;100.00;100179.88;4956628;28;20030;-84
2023/02/03 10:04:17;;;;;;;20.23;4.80;;;6.80;99.90;;;5.30;100.00;100181.00;4924931;28;20116;-85
2023/02/03 10:07:24;;;;;;;25.00;4.15;;;;;;;5.39;100.00;100192.06;4947319;28;20038;-86
2023/02/03 10:10:19;;;;;;;45.35;5.05;;;;;;;5.50;100.00;100179.47;4899045;28;20395;-87
2023/02/03 10:13:51;;;;;;;56.30;6.43;;;7.10;99.90;;;5.67;100.00;100187.59;4954347;28;20049;-86
2023/02/03 10:24:17;;;;;;;52.67;7.65;;;;;;;6.24;100.00;100177.75;4804867;29;20064;-86
2023/02/03 10:26:56;;;;;;;55.80;8.10;;;7.70;99.90;;;6.54;100.00;100164.38;4924875;23;20059;-88
2023/02/03 10:30:08;;;;;;;57.63;9.20;;;;;;;6.71;100.00;100172.41;4937892;28;20813;-86
2023/02/03 10:32:43;;;;;;;56.53;6.57;;;;;;;6.78;100.00;100154.72;4865210;29;20534;-87
2023/02/03 10:35:57;;;;;;;49.63;8.15;;;;;;;6.58;100.00;100156.34;4833259;29;20044;-87
2023/02/03 10:39:23;;;;;;;43.97;7.63;;;8.00;99.90;;;6.53;100.00;100173.16;4868342;28;20068;-88
2023/02/03 10:45:20;;;;;;;57.35;7.30;;;;;;;6.59;98.82;100183.38;4930281;28;20092;-87
2023/02/03 10:49:27;;;;;;;;;;;;;;;;;;;;;
2023/02/03 10:51:44;;;;;;;58.90;8.55;;;;;;;6.58;97.42;100171.19;4960267;28;20035;-88
2023/02/03 10:54:34;;;;;;;46.33;8.15;;;8.00;99.90;;;6.41;97.73;100190.16;4970903;28;20085;-88
2023/02/03 10:57:14;;;;;;;62.92;10.13;;;;;;;6.33;97.26;100211.38;4916190;28;20051;-89